sensor_id;sensor_type;location;lat;lon;timestamp;pressure;altitude;pressure_sealevel;temperature;humidity
48774;BME280;34576;0.000;0.000;2023-07-09T00:00:48;97055.03;;;22.89;55.14
48774;BME280;34576;0.000;0.000;2023-07-09T00:07:49;97052.34;;;22.89;55.00
48774;BME280;34576;0.000;0.000;2023-07-09T00:14:50;97055.03;;;22.89;55.17
48774;BME280;34576;0.000;0.000;2023-07-09T00:21:50;97051.53;;;22.88;54.92
48774;BME280;34576;0.000;0.000;2023-07-09T00:28:53;97046.97;;;22.89;54.91
48774;BME280;34576;0.000;0.000;2023-07-09T00:35:53;97050.75;;;22.88;54.95
48774;BME280;34576;0.000;0.000;2023-07-09T00:42:54;97054.22;;;22.88;55.16
48774;BME280;34576;0.000;0.000;2023-07-09T00:50:08;97059.56;;;22.88;54.81
48774;BME280;34576;0.000;0.000;2023-07-09T00:57:14;97063.06;;;22.89;54.94
48774;BME280;34576;0.000;0.000;2023-07-09T01:04:18;97061.47;;;22.88;55.08
48774;BME280;34576;0.000;0.000;2023-07-09T01:11:21;97068.72;;;22.87;54.96
48774;BME280;34576;0.000;0.000;2023-07-09T01:18:22;97056.09;;;22.88;55.08
48774;BME280;34576;0.000;0.000;2023-07-09T01:25:24;97050.75;;;22.88;54.90
48774;BME280;34576;0.000;0.000;2023-07-09T01:32:24;97049.97;;;22.87;54.92
48774;BME280;34576;0.000;0.000;2023-07-09T01:39:28;97044.59;;;22.87;54.94
48774;BME280;34576;0.000;0.000;2023-07-09T01:46:28;97045.38;;;22.88;54.91
48774;BME280;34576;0.000;0.000;2023-07-09T01:53:30;97044.59;;;22.87;54.82
48774;BME280;34576;0.000;0.000;2023-07-09T02:00:31;97044.59;;;22.87;55.10
48774;BME280;34576;0.000;0.000;2023-07-09T02:07:32;97049.16;;;22.87;55.17
48774;BME280;34576;0.000;0.000;2023-07-09T02:14:33;97054.50;;;22.87;54.82
48774;BME280;34576;0.000;0.000;2023-07-09T02:21:33;97051.81;;;22.87;54.92
48774;BME280;34576;0.000;0.000;2023-07-09T02:28:33;97055.59;;;22.86;54.82
48774;BME280;34576;0.000;0.000;2023-07-09T02:35:34;97056.41;;;22.86;54.94
48774;BME280;34576;0.000;0.000;2023-07-09T02:42:35;97054.50;;;22.87;55.09
48774;BME280;34576;0.000;0.000;2023-07-09T02:49:36;97059.09;;;22.86;54.68
48774;BME280;34576;0.000;0.000;2023-07-09T02:56:36;97061.78;;;22.86;54.71
48774;BME280;34576;0.000;0.000;2023-07-09T03:03:38;97059.09;;;22.86;54.92
48774;BME280;34576;0.000;0.000;2023-07-09T03:10:38;97066.31;;;22.86;55.03
48774;BME280;34576;0.000;0.000;2023-07-09T03:17:38;97066.63;;;22.84;54.91
48774;BME280;34576;0.000;0.000;2023-07-09T03:24:44;97064.75;;;22.85;54.97
48774;BME280;34576;0.000;0.000;2023-07-09T03:31:45;97056.72;;;22.85;54.87
48774;BME280;34576;0.000;0.000;2023-07-09T03:38:45;97074.66;;;22.84;54.64
48774;BME280;34576;0.000;0.000;2023-07-09T03:45:46;97081.94;;;22.84;54.83
48774;BME280;34576;0.000;0.000;2023-07-09T03:52:47;97076.56;;;22.84;54.68
48774;BME280;34576;0.000;0.000;2023-07-09T03:59:47;97081.94;;;22.84;54.63
48774;BME280;34576;0.000;0.000;2023-07-09T04:06:47;97088.38;;;22.83;54.89
48774;BME280;34576;0.000;0.000;2023-07-09T04:13:48;97079.25;;;22.84;54.74
48774;BME280;34576;0.000;0.000;2023-07-09T04:20:48;97081.16;;;22.83;54.75
48774;BME280;34576;0.000;0.000;2023-07-09T04:27:49;97088.06;;;22.84;54.60
48774;BME280;34576;0.000;0.000;2023-07-09T04:34:50;97086.50;;;22.83;54.75
48774;BME280;34576;0.000;0.000;2023-07-09T04:41:50;97092.66;;;22.84;54.94
48774;BME280;34576;0.000;0.000;2023-07-09T04:48:51;97088.06;;;22.84;54.65
48774;BME280;34576;0.000;0.000;2023-07-09T04:55:51;97080.34;;;22.83;54.81
48774;BME280;34576;0.000;0.000;2023-07-09T05:02:51;97087.28;;;22.84;54.70
48774;BME280;34576;0.000;0.000;2023-07-09T05:09:52;97075.78;;;22.83;54.61
48774;BME280;34576;0.000;0.000;2023-07-09T05:16:53;97073.59;;;22.85;54.72
48774;BME280;34576;0.000;0.000;2023-07-09T05:23:53;97074.38;;;22.86;54.65
48774;BME280;34576;0.000;0.000;2023-07-09T05:30:53;97074.38;;;22.86;54.58
48774;BME280;34576;0.000;0.000;2023-07-09T05:37:54;97072.81;;;22.85;54.61
48774;BME280;34576;0.000;0.000;2023-07-09T05:44:54;97089.38;;;22.87;54.39
48774;BME280;34576;0.000;0.000;2023-07-09T05:51:55;97081.34;;;22.87;54.39
48774;BME280;34576;0.000;0.000;2023-07-09T05:58:56;97081.34;;;22.87;54.57
48774;BME280;34576;0.000;0.000;2023-07-09T06:05:56;97079.47;;;22.87;54.53
48774;BME280;34576;0.000;0.000;2023-07-09T06:12:57;97083.22;;;22.86;54.58
48774;BME280;34576;0.000;0.000;2023-07-09T06:19:58;97081.34;;;22.87;54.44
48774;BME280;34576;0.000;0.000;2023-07-09T06:26:58;97074.38;;;22.86;54.39
48774;BME280;34576;0.000;0.000;2023-07-09T06:33:59;97074.38;;;22.86;54.79
48774;BME280;34576;0.000;0.000;2023-07-09T06:40:59;97066.31;;;22.86;54.54
48774;BME280;34576;0.000;0.000;2023-07-09T06:48:00;97065.25;;;22.87;54.67
48774;BME280;34576;0.000;0.000;2023-07-09T06:55:00;97062.56;;;22.87;54.70
48774;BME280;34576;0.000;0.000;2023-07-09T07:02:00;97061.47;;;22.88;54.62
48774;BME280;34576;0.000;0.000;2023-07-09T07:09:01;97049.97;;;22.87;54.66
48774;BME280;34576;0.000;0.000;2023-07-09T07:16:05;97041.59;;;22.89;54.62
48774;BME280;34576;0.000;0.000;2023-07-09T07:23:05;97037.03;;;22.89;54.62
48774;BME280;34576;0.000;0.000;2023-07-09T07:30:06;97032.44;;;22.90;54.73
48774;BME280;34576;0.000;0.000;2023-07-09T07:37:09;97044.78;;;22.91;54.69
48774;BME280;34576;0.000;0.000;2023-07-09T07:44:09;97035.94;;;22.90;54.68
48774;BME280;34576;0.000;0.000;2023-07-09T07:51:09;97034.53;;;22.93;54.48
48774;BME280;34576;0.000;0.000;2023-07-09T07:58:11;97035.66;;;22.92;54.74
48774;BME280;34576;0.000;0.000;2023-07-09T08:05:11;97037.22;;;22.93;54.52
48774;BME280;34576;0.000;0.000;2023-07-09T08:12:12;97031.56;;;22.95;54.79
48774;BME280;34576;0.000;0.000;2023-07-09T08:19:13;97028.09;;;22.94;54.74
48774;BME280;34576;0.000;0.000;2023-07-09T08:26:13;97041.19;;;22.96;54.75
48774;BME280;34576;0.000;0.000;2023-07-09T08:33:13;97036.63;;;22.96;54.99
48774;BME280;34576;0.000;0.000;2023-07-09T08:40:15;97043.56;;;22.97;54.65
48774;BME280;34576;0.000;0.000;2023-07-09T08:47:17;97039.81;;;22.98;54.71
48774;BME280;34576;0.000;0.000;2023-07-09T08:54:24;97041.41;;;22.99;54.87
48774;BME280;34576;0.000;0.000;2023-07-09T09:01:40;97054.22;;;23.02;54.79
48774;BME280;34576;0.000;0.000;2023-07-09T09:08:54;97046.94;;;23.03;54.90
48774;BME280;34576;0.000;0.000;2023-07-09T09:15:56;97035.91;;;23.04;55.10
48774;BME280;34576;0.000;0.000;2023-07-09T09:30:11;97014.97;;;23.06;54.75
48774;BME280;34576;0.000;0.000;2023-07-09T09:37:15;97011.19;;;23.07;54.85
48774;BME280;34576;0.000;0.000;2023-07-09T09:44:27;97003.63;;;23.09;55.07
48774;BME280;34576;0.000;0.000;2023-07-09T09:51:28;97006.84;;;23.12;55.25
48774;BME280;34576;0.000;0.000;2023-07-09T09:58:29;97013.78;;;23.13;54.89
48774;BME280;34576;0.000;0.000;2023-07-09T10:05:34;97014.28;;;23.15;55.05
48774;BME280;34576;0.000;0.000;2023-07-09T10:12:38;97008.63;;;23.16;54.99
48774;BME280;34576;0.000;0.000;2023-07-09T10:19:44;96996.78;;;23.17;55.22
48774;BME280;34576;0.000;0.000;2023-07-09T10:26:54;97001.06;;;23.18;55.27
48774;BME280;34576;0.000;0.000;2023-07-09T10:41:19;96990.53;;;23.22;55.23
48774;BME280;34576;0.000;0.000;2023-07-09T10:48:27;96992.91;;;23.23;55.52
48774;BME280;34576;0.000;0.000;2023-07-09T10:55:33;96981.09;;;23.24;55.49
48774;BME280;34576;0.000;0.000;2023-07-09T11:02:37;96980.78;;;23.26;55.48
48774;BME280;34576;0.000;0.000;2023-07-09T11:09:39;96974.00;;;23.29;55.65
48774;BME280;34576;0.000;0.000;2023-07-09T11:16:42;96981.75;;;23.30;55.63
48774;BME280;34576;0.000;0.000;2023-07-09T11:23:47;96974.19;;;23.32;55.69
48774;BME280;34576;0.000;0.000;2023-07-09T11:30:50;96968.50;;;23.34;55.65
48774;BME280;34576;0.000;0.000;2023-07-09T11:37:50;96969.00;;;23.36;55.54
48774;BME280;34576;0.000;0.000;2023-07-09T11:44:57;96981.31;;;23.37;55.72
48774;BME280;34576;0.000;0.000;2023-07-09T11:52:04;96971.88;;;23.39;55.75
48774;BME280;34576;0.000;0.000;2023-07-09T11:59:05;96969.66;;;23.41;55.75
48774;BME280;34576;0.000;0.000;2023-07-09T12:06:07;96963.22;;;23.42;55.84
48774;BME280;34576;0.000;0.000;2023-07-09T12:13:13;96961.81;;;23.45;55.87
48774;BME280;34576;0.000;0.000;2023-07-09T12:20:14;96946.50;;;23.46;55.86
48774;BME280;34576;0.000;0.000;2023-07-09T12:27:18;96945.09;;;23.48;56.06
48774;BME280;34576;0.000;0.000;2023-07-09T12:34:19;96942.09;;;23.50;56.10
48774;BME280;34576;0.000;0.000;2023-07-09T12:41:22;96938.34;;;23.51;56.12
48774;BME280;34576;0.000;0.000;2023-07-09T12:48:27;96936.13;;;23.53;56.08
48774;BME280;34576;0.000;0.000;2023-07-09T12:55:28;96926.19;;;23.53;56.03
48774;BME280;34576;0.000;0.000;2023-07-09T13:02:37;96932.84;;;23.56;56.34
48774;BME280;34576;0.000;0.000;2023-07-09T13:09:47;96929.84;;;23.57;56.25
48774;BME280;34576;0.000;0.000;2023-07-09T13:16:48;96924.97;;;23.59;56.32
48774;BME280;34576;0.000;0.000;2023-07-09T13:23:48;96911.22;;;23.61;56.29
48774;BME280;34576;0.000;0.000;2023-07-09T13:30:50;96912.81;;;23.62;56.32
48774;BME280;34576;0.000;0.000;2023-07-09T13:37:50;96900.69;;;23.65;56.44
48774;BME280;34576;0.000;0.000;2023-07-09T13:44:51;96897.69;;;23.66;56.35
48774;BME280;34576;0.000;0.000;2023-07-09T13:51:57;96889.31;;;23.68;56.52
48774;BME280;34576;0.000;0.000;2023-07-09T13:58:58;96879.06;;;23.70;56.50
48774;BME280;34576;0.000;0.000;2023-07-09T14:05:58;96881.72;;;23.70;56.59
48774;BME280;34576;0.000;0.000;2023-07-09T14:12:59;96868.81;;;23.72;56.68
48774;BME280;34576;0.000;0.000;2023-07-09T14:20:02;96856.66;;;23.74;56.54
48774;BME280;34576;0.000;0.000;2023-07-09T14:27:04;96852.84;;;23.75;56.31
48774;BME280;34576;0.000;0.000;2023-07-09T14:41:21;96852.84;;;23.75;56.57
48774;BME280;34576;0.000;0.000;2023-07-09T14:48:23;96853.66;;;23.76;56.72
48774;BME280;34576;0.000;0.000;2023-07-09T14:55:23;96860.59;;;23.77;56.71
48774;BME280;34576;0.000;0.000;2023-07-09T15:02:33;96853.34;;;23.77;56.81
48774;BME280;34576;0.000;0.000;2023-07-09T15:09:36;96861.41;;;23.77;56.81
48774;BME280;34576;0.000;0.000;2023-07-09T15:16:37;96852.22;;;23.78;56.81
48774;BME280;34576;0.000;0.000;2023-07-09T15:23:39;96852.72;;;23.81;56.64
48774;BME280;34576;0.000;0.000;2023-07-09T15:30:41;96844.66;;;23.81;56.74
48774;BME280;34576;0.000;0.000;2023-07-09T15:37:42;96839.00;;;23.82;56.91
48774;BME280;34576;0.000;0.000;2023-07-09T15:44:43;96836.00;;;23.84;56.73
48774;BME280;34576;0.000;0.000;2023-07-09T15:51:43;96827.16;;;23.83;56.75
48774;BME280;34576;0.000;0.000;2023-07-09T15:58:44;96826.84;;;23.85;56.84
48774;BME280;34576;0.000;0.000;2023-07-09T16:05:44;96831.13;;;23.86;56.73
48774;BME280;34576;0.000;0.000;2023-07-09T16:12:46;96830.31;;;23.85;56.84
48774;BME280;34576;0.000;0.000;2023-07-09T16:19:47;96831.13;;;23.86;56.88
48774;BME280;34576;0.000;0.000;2023-07-09T16:26:47;96833.53;;;23.87;56.76
48774;BME280;34576;0.000;0.000;2023-07-09T16:33:48;96828.94;;;23.88;56.76
48774;BME280;34576;0.000;0.000;2023-07-09T16:40:48;96819.78;;;23.89;56.86
48774;BME280;34576;0.000;0.000;2023-07-09T16:47:48;96831.00;;;23.91;56.81
48774;BME280;34576;0.000;0.000;2023-07-09T16:54:50;96835.59;;;23.90;56.85
48774;BME280;34576;0.000;0.000;2023-07-09T17:01:50;96831.00;;;23.91;56.72
48774;BME280;34576;0.000;0.000;2023-07-09T17:08:50;96824.53;;;23.92;56.91
48774;BME280;34576;0.000;0.000;2023-07-09T17:15:51;96815.69;;;23.91;56.75
48774;BME280;34576;0.000;0.000;2023-07-09T17:22:52;96815.72;;;24.00;56.59
48774;BME280;34576;0.000;0.000;2023-07-09T17:29:53;96817.75;;;23.94;56.60
48774;BME280;34576;0.000;0.000;2023-07-09T17:36:53;96821.53;;;23.93;56.92
48774;BME280;34576;0.000;0.000;2023-07-09T17:43:53;96813.78;;;23.92;57.02
48774;BME280;34576;0.000;0.000;2023-07-09T17:50:53;96816.94;;;23.94;56.85
48774;BME280;34576;0.000;0.000;2023-07-09T17:57:54;96830.22;;;23.90;57.10
48774;BME280;34576;0.000;0.000;2023-07-09T18:04:56;96839.06;;;23.91;57.37
48774;BME280;34576;0.000;0.000;2023-07-09T18:11:56;96836.06;;;23.92;57.08
48774;BME280;34576;0.000;0.000;2023-07-09T18:18:56;96841.44;;;23.92;57.25
48774;BME280;34576;0.000;0.000;2023-07-09T18:26:02;96849.78;;;23.91;57.42
48774;BME280;34576;0.000;0.000;2023-07-09T18:33:03;96853.28;;;23.91;57.56
48774;BME280;34576;0.000;0.000;2023-07-09T18:40:04;96847.63;;;23.93;57.50
48774;BME280;34576;0.000;0.000;2023-07-09T18:47:11;96845.25;;;23.91;57.59
48774;BME280;34576;0.000;0.000;2023-07-09T18:54:13;96849.00;;;23.90;58.45
48774;BME280;34576;0.000;0.000;2023-07-09T19:01:19;96858.66;;;23.91;58.49
48774;BME280;34576;0.000;0.000;2023-07-09T19:08:26;96849.00;;;23.90;58.26
48774;BME280;34576;0.000;0.000;2023-07-09T19:15:28;96865.13;;;23.90;58.21
48774;BME280;34576;0.000;0.000;2023-07-09T19:22:29;96872.09;;;23.91;58.07
48774;BME280;34576;0.000;0.000;2023-07-09T19:29:30;96881.25;;;23.90;57.85
48774;BME280;34576;0.000;0.000;2023-07-09T19:36:30;96885.81;;;23.90;57.79
48774;BME280;34576;0.000;0.000;2023-07-09T19:43:30;96896.56;;;23.90;57.75
48774;BME280;34576;0.000;0.000;2023-07-09T19:50:32;96895.00;;;23.89;57.49
48774;BME280;34576;0.000;0.000;2023-07-09T19:57:32;96906.22;;;23.91;57.65
48774;BME280;34576;0.000;0.000;2023-07-09T20:04:33;96908.13;;;23.90;57.51
48774;BME280;34576;0.000;0.000;2023-07-09T20:11:33;96907.31;;;23.90;57.44
48774;BME280;34576;0.000;0.000;2023-07-09T20:18:33;96912.69;;;23.90;57.48
48774;BME280;34576;0.000;0.000;2023-07-09T20:25:33;96913.50;;;23.90;57.33
48774;BME280;34576;0.000;0.000;2023-07-09T20:32:34;96913.50;;;23.90;57.57
48774;BME280;34576;0.000;0.000;2023-07-09T20:39:36;96915.38;;;23.90;57.23
48774;BME280;34576;0.000;0.000;2023-07-09T20:46:36;96913.50;;;23.90;57.20
48774;BME280;34576;0.000;0.000;2023-07-09T20:53:37;96916.84;;;23.96;57.05
48774;BME280;34576;0.000;0.000;2023-07-09T21:00:37;96920.69;;;24.12;55.06
48774;BME280;34576;0.000;0.000;2023-07-09T21:07:40;96925.97;;;24.26;49.51
48774;BME280;34576;0.000;0.000;2023-07-09T21:14:43;96922.22;;;24.36;48.45
48774;BME280;34576;0.000;0.000;2023-07-09T21:21:43;96932.41;;;24.17;48.49
48774;BME280;34576;0.000;0.000;2023-07-09T21:28:44;96941.31;;;24.26;48.17
48774;BME280;34576;0.000;0.000;2023-07-09T21:35:44;96949.78;;;24.10;48.96
48774;BME280;34576;0.000;0.000;2023-07-09T21:42:45;96950.66;;;23.97;48.67
48774;BME280;34576;0.000;0.000;2023-07-09T21:49:45;96956.22;;;24.01;48.67
48774;BME280;34576;0.000;0.000;2023-07-09T21:56:46;96961.41;;;23.97;48.72
48774;BME280;34576;0.000;0.000;2023-07-09T22:03:46;96963.25;;;23.88;49.08
48774;BME280;34576;0.000;0.000;2023-07-09T22:10:46;96960.91;;;23.95;48.73
48774;BME280;34576;0.000;0.000;2023-07-09T22:17:47;96962.53;;;23.96;48.41
48774;BME280;34576;0.000;0.000;2023-07-09T22:24:48;96980.72;;;23.99;48.61
48774;BME280;34576;0.000;0.000;2023-07-09T22:31:49;96984.00;;;23.73;48.91
48774;BME280;34576;0.000;0.000;2023-07-09T22:38:49;96982.59;;;23.76;49.06
48774;BME280;34576;0.000;0.000;2023-07-09T22:45:49;96981.91;;;23.70;49.05
48774;BME280;34576;0.000;0.000;2023-07-09T22:52:50;96980.31;;;23.69;49.62
48774;BME280;34576;0.000;0.000;2023-07-09T22:59:51;96984.34;;;23.81;49.05
48774;BME280;34576;0.000;0.000;2023-07-09T23:06:51;96978.38;;;23.84;48.68
48774;BME280;34576;0.000;0.000;2023-07-09T23:13:51;96981.78;;;23.75;49.33
48774;BME280;34576;0.000;0.000;2023-07-09T23:20:52;96974.47;;;23.67;49.79
48774;BME280;34576;0.000;0.000;2023-07-09T23:27:53;96976.19;;;23.63;49.76
48774;BME280;34576;0.000;0.000;2023-07-09T23:34:55;96959.44;;;23.66;49.94
48774;BME280;34576;0.000;0.000;2023-07-09T23:41:55;96951.56;;;23.70;49.97
48774;BME280;34576;0.000;0.000;2023-07-09T23:48:57;96952.72;;;23.77;49.96
48774;BME280;34576;0.000;0.000;2023-07-09T23:55:58;96953.81;;;23.76;49.52
